Time;durP1;ratioP1;P1;durP2;ratioP2;P2;SDS_P1;SDS_P2;PMS_P1;PMS_P2;Temp;Humidity;BMP_temperature;BMP_pressure;BME280_temperature;BME280_humidity;BME280_pressure;Samples;Min_cycle;Max_cycle;Signal;HPM_P1;HPM_P2
2024/02/10 00:00:25;;;;;;;17.37;8.37;;;;;;;9.85;100.00;100329.34;2090625;28;20411;-69
2024/02/10 00:01:27;;;;;;;21.00;9.23;;;;;;;10.24;100.00;100396.34;2090561;28;20177;-69
2024/02/10 00:02:28;;;;;;;15.13;9.20;;;;;;;10.26;100.00;100388.38;2090568;28;20176;-69
2024/02/10 00:03:29;;;;;;;14.27;8.97;;;;;;;9.91;100.00;100355.28;2090681;28;20935;-70
2024/02/10 00:04:30;;;;;;;15.83;8.17;;;;;;;9.83;100.00;100332.53;2090588;28;20177;-69
2024/02/10 00:05:31;;;;;;;17.67;7.93;;;;;;;9.91;100.00;100350.53;2090632;28;20426;-70
2024/02/10 00:06:36;;;;;;;14.87;7.87;;;;;;;10.20;100.00;100403.97;2090537;28;20653;-69
2024/02/10 00:07:37;;;;;;;15.00;8.20;;;;;;;10.16;100.00;100405.28;2090513;28;20180;-69
2024/02/10 00:08:38;;;;;;;18.37;8.73;;;;;;;9.56;100.00;100322.94;2090556;28;20510;-70
2024/02/10 00:09:39;;;;;;;17.30;9.47;;;;;;;10.07;100.00;100403.13;2090543;28;20430;-69
2024/02/10 00:10:41;;;;;;;15.63;8.97;;;;;;;9.66;100.00;100339.31;2090643;28;20181;-69
2024/02/10 00:11:42;;;;;;;16.23;9.37;;;;;;;10.05;100.00;100400.00;2090484;28;20418;-70
2024/02/10 00:12:42;;;;;;;19.90;9.10;;;;;;;9.69;100.00;100343.19;2090505;28;20552;-69
2024/02/10 00:13:43;;;;;;;15.53;7.53;;;;;;;10.06;100.00;100392.50;2090512;28;20176;-69
2024/02/10 00:16:03;;;;;;;15.77;7.90;;;;;;;10.03;100.00;100399.66;2098793;28;20163;-69
2024/02/10 00:17:09;;;;;;;18.17;8.60;;;;;;;10.01;100.00;100395.75;2098783;28;20406;-69
2024/02/10 00:18:10;;;;;;;15.37;8.27;;;;;;;9.93;100.00;100397.91;2098752;28;20742;-69
2024/02/10 00:19:10;;;;;;;15.83;8.77;;;;;;;9.83;100.00;100403.69;2098039;28;20939;-70
2024/02/10 00:20:15;;;;;;;17.60;9.73;;;;;;;9.53;100.00;100379.16;2098108;28;20953;-69
2024/02/10 00:21:20;;;;;;;14.13;8.47;;;;;;;9.06;100.00;100308.72;2098616;28;20174;-69
2024/02/10 00:22:24;;;;;;;22.27;8.87;;;;;;;9.22;100.00;100326.13;2098723;28;20496;-69
2024/02/10 00:23:26;;;;;;;17.60;8.87;;;;;;;9.60;100.00;100399.13;2098900;28;20443;-69
2024/02/10 00:24:28;;;;;;;16.20;9.00;;;;;;;9.37;100.00;100359.78;2098016;28;20418;-70
2024/02/10 00:25:28;;;;;;;15.87;8.13;;;;;;;9.65;100.00;100403.34;2093591;28;20964;-69
2024/02/10 00:26:29;;;;;;;17.93;8.90;;;;;;;9.67;100.00;100392.63;2090473;28;20786;-70
2024/02/10 00:27:30;;;;;;;12.47;7.37;;;;;;;9.30;100.00;100344.13;2090525;28;20183;-69
2024/02/10 00:28:34;;;;;;;14.50;8.00;;;;;;;9.60;100.00;100377.00;2090520;28;20178;-69
2024/02/10 00:29:37;;;;;;;14.10;7.57;;;;;;;9.42;100.00;100356.47;2090468;28;20411;-69
2024/02/10 00:30:37;;;;;;;15.47;8.23;;;;;;;9.75;100.00;100405.88;2090404;28;20415;-69
2024/02/10 00:31:42;;;;;;;16.43;8.17;;;;;;;9.66;100.00;100386.34;2090366;28;20443;-69
2024/02/10 00:32:43;;;;;;;17.23;9.33;;;;;;;9.80;100.00;100399.84;2090475;28;20201;-69
2024/02/10 00:33:46;;;;;;;15.60;8.70;;;;;;;9.45;100.00;100355.63;2090344;28;20954;-69
2024/02/10 00:34:46;;;;;;;15.00;8.30;;;;;;;9.70;100.00;100380.72;2090334;28;20505;-70
2024/02/10 00:35:47;;;;;;;13.63;7.87;;;;;;;9.01;100.00;100281.59;2090405;28;20950;-69
2024/02/10 00:36:48;;;;;;;16.23;8.30;;;;;;;9.77;100.00;100400.69;2090334;28;20182;-69
2024/02/10 00:37:49;;;;;;;20.17;8.67;;;;;;;9.46;100.00;100365.47;2089629;28;20200;-69
2024/02/10 00:38:50;;;;;;;18.23;8.83;;;;;;;9.75;100.00;100396.78;2089760;28;20202;-69
2024/02/10 00:39:50;;;;;;;13.30;7.63;;;;;;;9.71;100.00;100399.66;2090408;28;20425;-69
2024/02/10 00:40:51;;;;;;;15.20;7.83;;;;;;;9.72;100.00;100408.72;2090307;28;20202;-69
2024/02/10 00:41:52;;;;;;;18.43;8.23;;;;;;;9.30;100.00;100359.91;2090307;28;20188;-69
2024/02/10 00:42:53;;;;;;;16.33;8.27;;;;;;;9.58;100.00;100412.59;2090301;28;20200;-69
2024/02/10 00:43:53;;;;;;;14.63;8.30;;;;;;;9.00;100.00;100322.28;2090502;28;20168;-69
2024/02/10 00:44:59;;;;;;;14.67;7.93;;;;;;;9.61;100.00;100405.44;2090364;28;20175;-69
2024/02/10 00:46:00;;;;;;;15.50;7.50;;;;;;;9.37;100.00;100370.84;2089614;28;20164;-69
2024/02/10 00:47:04;;;;;;;16.03;7.60;;;;;;;9.05;100.00;100315.47;2089605;28;20504;-69
2024/02/10 00:48:06;;;;;;;17.47;8.33;;;;;;;9.20;100.00;100344.34;2090244;28;20216;-69
2024/02/10 00:49:06;;;;;;;13.60;7.30;;;;;;;9.35;100.00;100382.31;2090454;28;20426;-69
2024/02/10 00:50:07;;;;;;;16.60;7.80;;;;;;;9.44;100.00;100406.63;2090202;28;20414;-70
2024/02/10 00:51:09;;;;;;;15.83;8.20;;;;;;;9.41;100.00;100404.69;2097772;28;20205;-69
2024/02/10 00:52:09;;;;;;;14.47;7.87;;;;;;;9.51;100.00;100400.91;2089531;28;20425;-69
2024/02/10 00:53:11;;;;;;;12.40;7.57;;;;;;;9.46;100.00;100406.97;2089710;28;20414;-69
2024/02/10 00:54:12;;;;;;;16.13;7.87;;;;;;;9.03;100.00;100338.00;2089538;28;20191;-69
2024/02/10 00:55:12;;;;;;;14.33;7.90;;;;;;;9.37;100.00;100404.78;2089553;28;20411;-70
2024/02/10 00:56:13;;;;;;;12.93;7.27;;;;;;;8.36;100.00;100238.47;2089781;28;20769;-69
2024/02/10 00:57:14;;;;;;;21.57;8.43;;;;;;;9.46;100.00;100395.91;2090187;28;20168;-69
2024/02/10 00:58:15;;;;;;;19.13;8.03;;;;;;;9.52;100.00;100403.25;2090181;28;20200;-69
2024/02/10 00:59:17;;;;;;;13.40;8.10;;;;;;;9.54;100.00;100403.59;2089408;28;20426;-69
2024/02/10 01:00:18;;;;;;;17.23;8.43;;;;;;;8.83;100.00;100275.72;2089673;28;20187;-70
2024/02/10 01:01:21;;;;;;;14.60;7.77;;;;;;;9.47;100.00;100375.31;2090162;28;20430;-69
2024/02/10 01:02:23;;;;;;;17.77;8.50;;;;;;;9.62;100.00;100393.16;2090084;28;20195;-69
2024/02/10 01:03:23;;;;;;;13.10;7.53;;;;;;;9.44;100.00;100354.06;2089487;28;20419;-69
2024/02/10 01:04:27;;;;;;;12.77;7.67;;;;;;;9.47;100.00;100353.19;2097774;28;20414;-69
2024/02/10 01:05:29;;;;;;;17.00;7.40;;;;;;;9.65;100.00;100392.28;2098468;28;20225;-69
2024/02/10 01:06:30;;;;;;;15.37;7.47;;;;;;;9.72;100.00;100386.59;2098393;28;20417;-69
2024/02/10 01:07:30;;;;;;;14.80;7.10;;;;;;;9.74;100.00;100389.72;2098415;28;20452;-69
2024/02/10 01:08:31;;;;;;;13.20;7.23;;;;;;;9.80;100.00;100390.75;2098419;28;20226;-69
2024/02/10 01:09:32;;;;;;;16.97;7.87;;;;;;;9.42;100.00;100331.56;2098450;28;20184;-69
2024/02/10 01:10:33;;;;;;;14.80;7.83;;;;;;;9.85;100.00;100396.53;2098370;28;20655;-69
2024/02/10 01:11:34;;;;;;;14.17;8.00;;;;;;;9.88;100.00;100394.88;2098313;28;20565;-69
2024/02/10 01:12:34;;;;;;;15.63;7.70;;;;;;;9.65;100.00;100357.13;2098307;28;20504;-70
2024/02/10 01:13:35;;;;;;;13.13;6.73;;;;;;;9.88;100.00;100395.66;2098076;28;20185;-70
2024/02/10 01:14:38;;;;;;;13.03;7.50;;;;;;;9.37;100.00;100316.28;2098440;28;20652;-69
2024/02/10 01:15:38;;;;;;;15.97;8.23;;;;;;;9.85;100.00;100393.00;2098316;28;20180;-70
2024/02/10 01:16:44;;;;;;;14.97;7.43;;;;;;;9.75;100.00;100369.13;2098322;28;20521;-69
2024/02/10 01:17:46;;;;;;;15.70;7.97;;;;;;;9.85;100.00;100393.00;2098312;28;20679;-69
2024/02/10 01:18:50;;;;;;;17.30;7.97;;;;;;;9.82;100.00;100386.34;2097591;28;20426;-70
2024/02/10 01:19:51;;;;;;;17.50;7.50;;;;;;;9.68;100.00;100370.06;2097824;28;20410;-69
2024/02/10 01:20:51;;;;;;;15.73;7.87;;;;;;;9.77;100.00;100384.09;2098240;28;20441;-69
2024/02/10 01:21:55;;;;;;;14.87;8.23;;;;;;;9.44;100.00;100329.19;2098215;28;20220;-69
2024/02/10 01:22:59;;;;;;;12.60;7.27;;;;;;;9.91;100.00;100385.72;2098467;28;20209;-69
2024/02/10 01:24:00;;;;;;;15.57;7.80;;;;;;;9.59;100.00;100350.53;2098275;28;20410;-69
2024/02/10 01:25:01;;;;;;;13.97;6.83;;;;;;;9.87;100.00;100379.50;2098450;28;20417;-69
2024/02/10 01:26:01;;;;;;;13.80;7.40;;;;;;;9.95;100.00;100378.13;2098420;28;20439;-70
2024/02/10 01:27:03;;;;;;;19.20;7.60;;;;;;;9.87;100.00;100362.88;2098359;28;20203;-69
2024/02/10 01:28:04;;;;;;;13.73;7.53;;;;;;;9.85;100.00;100362.56;2097571;28;20221;-69
2024/02/10 01:29:09;;;;;;;18.40;8.27;;;;;;;9.98;100.00;100375.25;2097641;28;20414;-70
2024/02/10 01:30:10;;;;;;;12.80;7.33;;;;;;;9.90;100.00;100376.63;2097506;28;20175;-69
2024/02/10 01:31:12;;;;;;;16.37;7.10;;;;;;;9.85;100.00;100365.31;2097642;28;21067;-69
2024/02/10 01:32:15;;;;;;;11.70;7.17;;;;;;;9.46;100.00;100318.44;2098232;28;20178;-69
2024/02/10 01:33:16;;;;;;;12.67;7.67;;;;;;;9.91;100.00;100380.97;2097711;28;20438;-70
2024/02/10 01:34:17;;;;;;;11.00;7.10;;;;;;;9.54;100.00;100334.44;2098324;28;20415;-69
2024/02/10 01:35:18;;;;;;;17.43;7.83;;;;;;;9.53;100.00;100307.22;2098213;28;20169;-69
2024/02/10 01:36:19;;;;;;;17.97;7.20;;;;;;;9.68;100.00;100330.56;2091366;28;20427;-69
2024/02/10 01:37:23;;;;;;;12.33;7.17;;;;;;;9.56;100.00;100311.88;2089358;28;20177;-69
2024/02/10 01:38:24;;;;;;;20.53;7.97;;;;;;;9.89;100.00;100352.19;2089867;28;20184;-69
2024/02/10 01:39:25;;;;;;;18.40;7.60;;;;;;;9.93;100.00;100367.47;2090085;28;20460;-69
2024/02/10 01:40:25;;;;;;;15.63;7.70;;;;;;;9.68;100.00;100319.50;2089904;28;20177;-69
2024/02/10 01:41:28;;;;;;;15.60;7.83;;;;;;;9.97;100.00;100373.69;2090009;28;20235;-69
2024/02/10 01:42:37;;;;;;;15.53;7.27;;;;;;;9.56;100.00;100309.13;2089169;28;20233;-69
2024/02/10 01:43:39;;;;;;;19.87;7.77;;;;;;;9.35;100.00;100279.22;2089602;28;20478;-69
2024/02/10 01:44:43;;;;;;;16.60;7.67;;;;;;;10.01;100.00;100381.91;2090106;28;20424;-70
2024/02/10 01:45:45;;;;;;;15.47;6.93;;;;;;;9.97;100.00;100378.44;2089931;28;20481;-69
2024/02/10 01:46:46;;;;;;;14.03;7.23;;;;;;;9.62;100.00;100344.13;2089758;28;20419;-70
2024/02/10 01:47:48;;;;;;;14.43;7.27;;;;;;;9.87;100.00;100374.75;2089926;28;20412;-69
2024/02/10 01:48:49;;;;;;;11.10;6.70;;;;;;;9.40;100.00;100290.56;2089859;28;20416;-70
2024/02/10 01:49:50;;;;;;;13.50;6.83;;;;;;;9.89;100.00;100377.84;2090048;28;20416;-69
2024/02/10 01:50:51;;;;;;;14.67;6.70;;;;;;;9.88;100.00;100378.28;2089859;28;20420;-69
2024/02/10 01:51:52;;;;;;;11.50;6.47;;;;;;;9.59;100.00;100338.69;2089812;28;20667;-70
2024/02/10 01:52:53;;;;;;;12.60;7.00;;;;;;;9.91;100.00;100380.97;2089859;28;20676;-68
2024/02/10 01:53:57;;;;;;;16.85;7.07;;;;;;;9.92;100.00;100382.53;2089849;28;20179;-70
2024/02/10 01:54:58;;;;;;;13.93;6.70;;;;;;;9.93;100.00;100373.00;2089805;28;20207;-69
2024/02/10 01:56:00;;;;;;;13.37;7.50;;;;;;;9.92;100.00;100376.19;2089757;28;20225;-69
2024/02/10 01:57:01;;;;;;;14.67;7.10;;;;;;;9.74;100.00;100351.72;2089143;28;20161;-69
2024/02/10 01:58:06;;;;;;;16.43;6.60;;;;;;;9.88;100.00;100368.00;2089116;28;20423;-69
2024/02/10 01:59:07;;;;;;;15.27;7.20;;;;;;;9.38;100.00;100297.72;2089831;28;20426;-69
2024/02/10 02:00:13;;;;;;;12.10;7.07;;;;;;;9.65;100.00;100345.25;2089113;28;20989;-70
2024/02/10 02:01:17;;;;;;;12.33;6.20;;;;;;;9.80;100.00;100386.00;2089396;28;20404;-69
2024/02/10 02:02:17;;;;;;;17.07;7.13;;;;;;;9.80;100.00;100383.22;2089768;28;20424;-69
2024/02/10 02:03:19;;;;;;;14.23;6.70;;;;;;;8.98;100.00;100246.53;2089821;28;20413;-69
2024/02/10 02:04:22;;;;;;;13.07;7.13;;;;;;;9.72;100.00;100378.28;2089106;28;20183;-69
2024/02/10 02:05:22;;;;;;;11.93;6.63;;;;;;;9.74;100.00;100376.63;2089300;28;20787;-69
2024/02/10 02:06:24;;;;;;;14.03;7.00;;;;;;;9.75;100.00;100377.44;2089723;28;20424;-69
2024/02/10 02:07:28;;;;;;;10.60;6.60;;;;;;;9.73;100.00;100377.84;2089926;28;20194;-69
2024/02/10 02:08:28;;;;;;;13.37;6.93;;;;;;;9.21;100.00;100304.44;2089033;28;20446;-69
2024/02/10 02:09:29;;;;;;;10.57;6.37;;;;;;;9.74;100.00;100381.41;2089119;28;20453;-69
2024/02/10 02:10:30;;;;;;;9.70;6.10;;;;;;;9.77;100.00;100378.56;2089903;28;20179;-69
2024/02/10 02:11:31;;;;;;;10.67;6.53;;;;;;;9.59;100.00;100356.06;2089804;28;20176;-69
2024/02/10 02:12:32;;;;;;;12.00;6.03;;;;;;;9.70;100.00;100372.41;2089759;28;20172;-69
2024/02/10 02:13:32;;;;;;;11.93;6.93;;;;;;;9.23;100.00;100311.09;2089721;28;20457;-69
2024/02/10 02:14:37;;;;;;;16.10;7.83;;;;;;;9.51;100.00;100345.59;2089741;28;20209;-70
2024/02/10 02:15:39;;;;;;;15.13;7.45;;;;;;;9.75;100.00;100380.19;2089849;28;20669;-70
2024/02/10 02:16:40;;;;;;;15.07;7.45;;;;;;;9.78;100.00;100382.09;2089723;28;20559;-69
2024/02/10 02:17:40;;;;;;;13.80;7.30;;;;;;;9.76;100.00;100382.53;2089711;28;20259;-69
2024/02/10 02:18:44;;;;;;;14.33;7.40;;;;;;;9.79;100.00;100378.88;2089843;28;20174;-69
2024/02/10 02:19:44;;;;;;;15.67;7.23;;;;;;;9.20;100.00;100291.81;2089054;28;20177;-69
2024/02/10 02:20:48;;;;;;;14.47;6.70;;;;;;;9.25;100.00;100300.41;2089117;28;20963;-70
2024/02/10 02:21:48;;;;;;;16.17;8.73;;;;;;;9.87;100.00;100385.03;2089800;28;20173;-69
2024/02/10 02:22:53;;;;;;;15.27;7.27;;;;;;;9.32;100.00;100305.75;2089695;28;20179;-70
2024/02/10 02:23:53;;;;;;;17.17;8.07;;;;;;;9.70;100.00;100367.66;2089844;28;20548;-69
2024/02/10 02:24:54;;;;;;;14.43;7.63;;;;;;;9.34;100.00;100305.31;2089040;28;20414;-69
2024/02/10 02:25:54;;;;;;;12.03;6.50;;;;;;;9.85;100.00;100370.84;2089127;28;20703;-69
2024/02/10 02:26:58;;;;;;;15.83;7.83;;;;;;;9.62;100.00;100330.31;2089568;28;20745;-69
2024/02/10 02:27:58;;;;;;;10.82;6.65;;;;;;;9.68;100.00;100344.41;2089690;28;20181;-69
2024/02/10 02:28:59;;;;;;;13.93;6.93;;;;;;;9.20;100.00;100289.06;2089908;28;20172;-69
2024/02/10 02:29:59;;;;;;;12.77;7.47;;;;;;;9.81;100.00;100368.19;2089935;28;20165;-69
2024/02/10 02:31:03;;;;;;;11.53;7.10;;;;;;;9.76;100.00;100371.47;2089661;28;20178;-69
2024/02/10 02:32:04;;;;;;;17.03;6.80;;;;;;;9.37;100.00;100298.94;2089750;28;20172;-69
2024/02/10 02:33:04;;;;;;;13.37;7.33;;;;;;;9.49;100.00;100310.06;2089662;28;20414;-70
2024/02/10 02:34:05;;;;;;;13.67;7.00;;;;;;;9.65;100.00;100329.44;2089379;28;20179;-69
2024/02/10 02:35:09;;;;;;;16.43;7.60;;;;;;;9.29;100.00;100278.97;2089844;28;20185;-69
2024/02/10 02:36:10;;;;;;;16.93;7.33;;;;;;;9.28;100.00;100279.41;2088985;28;20185;-69
2024/02/10 02:37:10;;;;;;;13.30;7.33;;;;;;;9.74;100.00;100365.56;2089106;28;20959;-69
2024/02/10 02:38:15;;;;;;;19.33;7.73;;;;;;;9.62;100.00;100357.97;2089676;28;20667;-69
2024/02/10 02:39:16;;;;;;;15.57;7.80;;;;;;;9.29;100.00;100314.13;2089632;28;20201;-69
2024/02/10 02:40:16;;;;;;;19.27;7.43;;;;;;;9.26;100.00;100295.63;2089843;28;20409;-69
2024/02/10 02:41:17;;;;;;;14.00;6.20;;;;;;;9.71;100.00;100360.91;2088976;28;20212;-69
2024/02/10 02:42:20;;;;;;;16.17;7.47;;;;;;;9.26;100.00;100290.09;2089099;28;20221;-69
2024/02/10 02:43:20;;;;;;;14.67;7.13;;;;;;;9.53;100.00;100315.53;2088898;28;20181;-69
2024/02/10 02:44:21;;;;;;;17.40;7.17;;;;;;;9.90;100.00;100364.81;2089044;28;20414;-69
2024/02/10 02:45:21;;;;;;;14.33;7.00;;;;;;;9.93;100.00;100361.16;2090387;28;20235;-69
2024/02/10 02:46:23;;;;;;;14.43;6.67;;;;;;;9.95;100.00;100353.19;2091221;28;20233;-69
2024/02/10 02:47:23;;;;;;;14.20;8.43;;;;;;;10.01;100.00;100363.31;2091096;28;20554;-69
2024/02/10 02:48:24;;;;;;;13.23;6.83;;;;;;;9.95;100.00;100350.44;2091248;28;20485;-69
2024/02/10 02:49:24;;;;;;;14.70;7.83;;;;;;;9.33;100.00;100265.81;2091188;28;20657;-69
2024/02/10 02:50:25;;;;;;;14.40;7.17;;;;;;;9.93;100.00;100345.31;2091377;28;20639;-69
2024/02/10 02:51:25;;;;;;;14.27;6.87;;;;;;;10.02;100.00;100364.09;2091240;28;20178;-69
2024/02/10 02:52:30;;;;;;;15.60;7.80;;;;;;;9.98;100.00;100366.94;2090453;28;20179;-69
2024/02/10 02:53:31;;;;;;;14.80;7.13;;;;;;;9.84;100.00;100347.91;2090694;28;20546;-69
2024/02/10 02:54:33;;;;;;;14.03;7.73;;;;;;;9.99;100.00;100370.50;2091169;28;20427;-69
2024/02/10 02:55:34;;;;;;;14.23;7.30;;;;;;;9.28;100.00;100258.03;2091131;28;20416;-69
2024/02/10 02:56:35;;;;;;;11.83;6.63;;;;;;;9.69;100.00;100334.88;2091297;28;20397;-69
2024/02/10 02:57:35;;;;;;;12.77;6.80;;;;;;;9.92;100.00;100377.00;2091112;28;20184;-69
2024/02/10 02:58:36;;;;;;;11.73;6.57;;;;;;;9.99;100.00;100390.66;2091143;28;20225;-69
2024/02/10 02:59:36;;;;;;;12.93;6.07;;;;;;;9.99;100.00;100404.47;2091108;28;20265;-70
2024/02/10 03:00:38;;;;;;;13.23;7.13;;;;;;;10.03;100.00;100404.38;2091111;28;20202;-69
2024/02/10 03:01:40;;;;;;;13.50;7.37;;;;;;;9.76;100.00;100367.91;2091063;28;20240;-69
2024/02/10 03:02:41;;;;;;;12.80;6.27;;;;;;;9.48;100.00;100322.34;2091136;28;20419;-69
2024/02/10 03:03:44;;;;;;;13.57;6.13;;;;;;;10.01;100.00;100406.81;2091098;28;20445;-69
2024/02/10 03:04:45;;;;;;;13.50;6.50;;;;;;;9.75;100.00;100389.28;2091164;28;20170;-69
2024/02/10 03:05:45;;;;;;;12.43;6.50;;;;;;;9.80;100.00;100413.69;2091150;28;20427;-69
2024/02/10 03:06:46;;;;;;;10.53;6.80;;;;;;;9.64;100.00;100421.19;2090997;28;20203;-69
2024/02/10 03:07:46;;;;;;;16.20;7.57;;;;;;;9.69;100.00;100426.97;2091186;28;20668;-69
2024/02/10 03:08:47;;;;;;;17.43;7.57;;;;;;;9.76;100.00;100424.03;2091220;28;20673;-69
2024/02/10 03:09:48;;;;;;;21.77;7.60;;;;;;;9.20;100.00;100345.13;2090959;28;20181;-69
2024/02/10 03:10:50;;;;;;;15.80;6.93;;;;;;;9.82;100.00;100433.38;2091063;28;20185;-69
2024/02/10 03:11:51;;;;;;;12.25;7.00;;;;;;;9.84;100.00;100430.19;2091000;28;20257;-70
2024/02/10 03:12:51;;;;;;;15.33;7.50;;;;;;;9.84;100.00;100432.97;2091017;28;20183;-69
2024/02/10 03:13:52;;;;;;;12.93;6.50;;;;;;;9.71;100.00;100424.56;2091061;28;20210;-69
2024/02/10 03:14:54;;;;;;;12.57;6.40;;;;;;;9.36;100.00;100381.09;2090326;28;20185;-69
2024/02/10 03:15:55;;;;;;;12.00;7.10;;;;;;;9.71;100.00;100443.13;2082165;28;20834;-69
2024/02/10 03:16:55;;;;;;;10.47;6.90;;;;;;;9.31;100.00;100378.06;2090407;28;20410;-70
2024/02/10 03:17:56;;;;;;;14.23;7.63;;;;;;;9.79;100.00;100442.53;2091057;28;20680;-69
2024/02/10 03:19:00;;;;;;;15.87;7.37;;;;;;;9.63;100.00;100422.38;2090899;28;20225;-69
2024/02/10 03:20:01;;;;;;;11.90;6.77;;;;;;;9.75;100.00;100438.31;2090295;28;20183;-69
2024/02/10 03:21:01;;;;;;;12.57;6.90;;;;;;;9.66;100.00;100427.84;2090468;28;20410;-69
2024/02/10 03:22:03;;;;;;;13.13;6.90;;;;;;;9.81;100.00;100436.56;2090931;28;20185;-69
2024/02/10 03:23:03;;;;;;;13.77;7.03;;;;;;;9.77;100.00;100431.13;2090916;28;20197;-69
2024/02/10 03:24:05;;;;;;;12.87;7.23;;;;;;;9.69;100.00;100443.56;2091061;28;20412;-69
2024/02/10 03:25:05;;;;;;;14.37;7.43;;;;;;;9.77;100.00;100446.94;2090937;28;20175;-69
2024/02/10 03:26:06;;;;;;;12.77;6.83;;;;;;;9.78;100.00;100443.00;2091015;28;20500;-69
2024/02/10 03:27:07;;;;;;;17.50;7.40;;;;;;;9.78;100.00;100443.00;2090825;28;20220;-69
2024/02/10 03:28:07;;;;;;;13.20;7.37;;;;;;;9.67;100.00;100446.00;2091005;28;20415;-69
2024/02/10 03:29:09;;;;;;;17.20;7.47;;;;;;;9.72;100.00;100448.25;2090926;28;20332;-69
2024/02/10 03:30:13;;;;;;;14.27;7.00;;;;;;;9.77;100.00;100438.63;2090211;28;20181;-69
2024/02/10 03:31:13;;;;;;;12.90;7.77;;;;;;;9.69;100.00;100437.25;2082257;28;20806;-69
2024/02/10 03:32:14;;;;;;;12.53;7.03;;;;;;;9.69;100.00;100438.03;2090244;28;20451;-69
2024/02/10 03:33:15;;;;;;;12.07;7.23;;;;;;;9.73;100.00;100443.50;2090986;28;20171;-69
2024/02/10 03:34:16;;;;;;;11.13;6.90;;;;;;;9.41;100.00;100375.06;2090985;28;20520;-69
2024/02/10 03:35:16;;;;;;;12.47;6.63;;;;;;;9.79;100.00;100422.41;2091067;28;20164;-69
2024/02/10 03:36:16;;;;;;;13.80;7.77;;;;;;;9.79;100.00;100425.94;2090793;28;20173;-69
2024/02/10 03:37:18;;;;;;;10.87;6.40;;;;;;;9.75;100.00;100422.50;2090838;28;20164;-69
2024/02/10 03:38:20;;;;;;;15.63;7.97;;;;;;;9.28;100.00;100351.28;2091023;28;20581;-70
2024/02/10 03:39:20;;;;;;;15.20;6.73;;;;;;;9.80;100.00;100407.34;2090784;28;20426;-69
2024/02/10 03:40:21;;;;;;;13.63;7.23;;;;;;;9.12;100.00;100301.50;2090758;28;20442;-70
2024/02/10 03:41:22;;;;;;;20.53;7.37;;;;;;;9.75;100.00;100397.59;2090807;28;20187;-69
2024/02/10 03:42:22;;;;;;;13.03;6.00;;;;;;;9.79;100.00;100394.72;2090810;28;20327;-69
2024/02/10 03:43:26;;;;;;;13.77;6.67;;;;;;;9.51;100.00;100337.28;2090791;28;20179;-69
2024/02/10 03:44:26;;;;;;;12.67;6.10;;;;;;;9.56;100.00;100356.94;2090721;28;20175;-69
2024/02/10 03:45:33;;;;;;;16.70;6.37;;;;;;;10.12;100.00;100402.63;2090729;28;20425;-69
2024/02/10 03:46:34;;;;;;;11.63;6.77;;;;;;;10.10;100.00;100437.47;2090114;28;20179;-69
2024/02/10 03:47:35;;;;;;;14.60;7.00;;;;;;;10.05;100.00;100418.63;2081846;28;20557;-69
2024/02/10 03:48:39;;;;;;;12.27;6.00;;;;;;;10.02;100.00;100411.94;2090321;28;20428;-69
2024/02/10 03:49:40;;;;;;;12.50;6.77;;;;;;;10.03;100.00;100410.72;2090803;28;20660;-69
2024/02/10 03:50:40;;;;;;;13.53;7.03;;;;;;;9.98;100.00;100407.69;2090746;28;20797;-70
2024/02/10 03:51:41;;;;;;;9.63;5.60;;;;;;;9.77;100.00;100403.47;2090808;28;20182;-69
2024/02/10 03:52:41;;;;;;;11.87;6.27;;;;;;;9.01;100.00;100332.13;2090046;28;20184;-69
2024/02/10 03:53:41;;;;;;;12.13;6.27;;;;;;;9.62;100.00;100407.75;2090122;28;20203;-70
2024/02/10 03:54:42;;;;;;;10.47;5.97;;;;;;;9.49;100.00;100381.22;2090898;28;20175;-69
2024/02/10 03:55:43;;;;;;;15.57;7.03;;;;;;;9.39;100.00;100391.28;2090407;28;20177;-69
2024/02/10 03:56:47;;;;;;;11.57;6.30;;;;;;;9.07;100.00;100337.94;2090468;28;20261;-69
2024/02/10 03:57:51;;;;;;;10.47;5.83;;;;;;;9.40;100.00;100398.41;2090612;28;20425;-69
2024/02/10 03:58:51;;;;;;;10.87;6.20;;;;;;;9.54;100.00;100405.59;2090629;28;20430;-70
2024/02/10 03:59:52;;;;;;;11.83;6.80;;;;;;;9.53;100.00;100398.50;2090737;28;20431;-69
2024/02/10 04:00:53;;;;;;;12.87;6.80;;;;;;;9.74;100.00;100398.00;2090625;28;20535;-69
2024/02/10 04:01:55;;;;;;;10.63;5.53;;;;;;;9.86;100.00;100400.09;2090602;28;20254;-69
2024/02/10 04:02:56;;;;;;;9.30;5.33;;;;;;;9.70;100.00;100375.97;2090582;28;20436;-69
2024/02/10 04:03:56;;;;;;;12.40;6.20;;;;;;;9.58;100.00;100395.25;2090547;28;20413;-69
2024/02/10 04:04:58;;;;;;;16.17;6.37;;;;;;;9.59;100.00;100399.56;2090812;28;20167;-69
2024/02/10 04:05:58;;;;;;;11.90;6.17;;;;;;;9.66;100.00;100407.69;2090613;28;20612;-69
2024/02/10 04:06:59;;;;;;;11.03;5.80;;;;;;;9.68;100.00;100396.97;2089809;28;20460;-69
2024/02/10 04:08:00;;;;;;;14.27;6.60;;;;;;;9.71;100.00;100391.34;2090124;28;20675;-69
2024/02/10 04:09:01;;;;;;;11.13;6.10;;;;;;;9.15;100.00;100331.81;2090591;28;20171;-69
2024/02/10 04:10:02;;;;;;;11.63;6.60;;;;;;;8.92;100.00;100292.47;2089877;28;20435;-69
2024/02/10 04:11:06;;;;;;;13.40;6.30;;;;;;;9.68;100.00;100388.69;2089938;28;21042;-69
2024/02/10 04:12:06;;;;;;;12.10;5.17;;;;;;;9.77;100.00;100377.75;2090537;28;20413;-69
2024/02/10 04:13:09;;;;;;;10.33;6.17;;;;;;;9.73;100.00;100364.00;2090643;28;20474;-69
2024/02/10 04:14:09;;;;;;;11.07;6.50;;;;;;;9.84;100.00;100366.53;2090738;28;20205;-69
2024/02/10 04:15:12;;;;;;;11.03;6.40;;;;;;;9.73;100.00;100366.78;2090607;28;20421;-69
2024/02/10 04:16:13;;;;;;;12.73;6.40;;;;;;;9.20;100.00;100314.72;2090721;28;20230;-69
2024/02/10 04:17:13;;;;;;;10.10;6.13;;;;;;;9.51;100.00;100356.66;2090485;28;20428;-69
2024/02/10 04:18:14;;;;;;;15.73;6.70;;;;;;;9.35;100.00;100313.19;2090600;28;20922;-69
2024/02/10 04:19:14;;;;;;;14.90;6.37;;;;;;;9.75;100.00;100371.88;2090692;28;20229;-71
2024/02/10 04:20:19;;;;;;;9.43;6.47;;;;;;;9.78;100.00;100380.09;2089789;28;20300;-69
2024/02/10 04:21:20;;;;;;;11.80;6.40;;;;;;;9.11;100.00;100275.03;2089925;28;20552;-69
2024/02/10 04:22:23;;;;;;;10.60;6.90;;;;;;;9.55;100.00;100336.03;2089794;28;20419;-70
2024/02/10 04:23:29;;;;;;;10.67;5.70;;;;;;;9.88;100.00;100383.81;2089879;28;20173;-69
2024/02/10 04:24:30;;;;;;;10.53;5.97;;;;;;;10.04;100.00;100386.63;2090552;28;20419;-70
2024/02/10 04:25:30;;;;;;;8.97;6.33;;;;;;;9.88;100.00;100359.69;2090414;28;20421;-69
2024/02/10 04:26:31;;;;;;;11.80;5.63;;;;;;;10.10;100.00;100393.94;2090447;28;20182;-69
2024/02/10 04:27:31;;;;;;;15.33;6.00;;;;;;;10.16;100.00;100395.00;2090361;28;20292;-70
2024/02/10 04:28:33;;;;;;;10.90;6.03;;;;;;;9.96;100.00;100369.38;2089681;28;20187;-69
2024/02/10 04:29:35;;;;;;;13.87;6.07;;;;;;;9.96;100.00;100363.84;2089843;28;20209;-70
2024/02/10 04:30:36;;;;;;;13.10;6.57;;;;;;;9.94;100.00;100368.25;2090407;28;20425;-69
2024/02/10 04:31:39;;;;;;;13.77;6.33;;;;;;;10.06;100.00;100392.50;2090369;28;20444;-70
2024/02/10 04:32:46;;;;;;;14.90;6.60;;;;;;;9.85;100.00;100362.56;2090393;28;20673;-69
2024/02/10 04:33:50;;;;;;;11.90;6.63;;;;;;;9.62;100.00;100333.06;2090527;28;20421;-69
2024/02/10 04:34:50;;;;;;;14.10;6.50;;;;;;;10.00;100.00;100402.50;2090396;28;20257;-69
2024/02/10 04:35:51;;;;;;;16.23;6.43;;;;;;;10.21;100.00;100404.75;2090345;28;20483;-69
2024/02/10 04:36:51;;;;;;;9.50;6.10;;;;;;;10.16;100.00;100400.53;2090461;28;20181;-69
2024/02/10 04:37:53;;;;;;;13.13;7.47;;;;;;;10.05;100.00;100394.47;2090333;28;20645;-69
2024/02/10 04:38:56;;;;;;;15.93;6.70;;;;;;;9.96;100.00;100376.91;2090334;28;20238;-69
2024/02/10 04:39:58;;;;;;;12.93;7.57;;;;;;;9.90;100.00;100376.63;2090532;28;20418;-69
2024/02/10 04:41:04;;;;;;;16.67;7.10;;;;;;;9.71;100.00;100347.09;2090502;28;20422;-69
2024/02/10 04:42:05;;;;;;;13.80;7.88;;;;;;;10.07;100.00;100403.13;2090571;28;20913;-70
2024/02/10 04:43:06;;;;;;;22.73;7.80;;;;;;;9.97;100.00;100414.44;2090300;28;20607;-70
2024/02/10 04:44:06;;;;;;;15.83;7.07;;;;;;;10.03;100.00;100416.25;2090269;28;20171;-69